Time;durP1;ratioP1;P1;durP2;ratioP2;P2;SDS_P1;SDS_P2;PMS_P1;PMS_P2;Temp;Humidity;BMP_temperature;BMP_pressure;BME280_temperature;BME280_humidity;BME280_pressure;Samples;Min_cycle;Max_cycle;Signal;HPM_P1;HPM_P2
2021/05/28 00:02:03;;;;;;;0.62;0.45;;;11.80;99.90;;;;;;4446314;32;20061;-61
2021/05/28 00:04:28;;;;;;;5.57;1.75;;;11.80;99.90;;;;;;4446192;32;20081;-59
2021/05/28 00:06:54;;;;;;;0.20;0.20;;;11.90;99.90;;;;;;4446775;32;20069;-63
2021/05/28 00:09:19;;;;;;;0.40;0.40;;;11.90;99.90;;;;;;4446637;32;20065;-63
2021/05/28 00:11:45;;;;;;;0.40;0.40;;;11.80;99.90;;;;;;4444778;32;20078;-62
2021/05/28 00:14:11;;;;;;;0.30;0.30;;;11.80;99.90;;;;;;4431246;32;20120;-62
2021/05/28 00:16:37;;;;;;;0.47;0.47;;;11.80;99.90;;;;;;4431296;32;20413;-62
2021/05/28 00:19:03;;;;;;;0.40;0.40;;;11.80;99.90;;;;;;4431126;32;20066;-62
2021/05/28 00:21:29;;;;;;;1.52;0.52;;;11.70;99.90;;;;;;4431092;32;20134;-62
2021/05/28 00:23:54;;;;;;;0.62;0.55;;;11.80;99.90;;;;;;4431747;32;20058;-62
2021/05/28 00:26:20;;;;;;;0.30;0.30;;;11.80;99.90;;;;;;4430310;32;20066;-62
2021/05/28 00:28:49;;;;;;;0.40;0.40;;;11.80;99.90;;;;;;4431038;32;20072;-61
2021/05/28 00:31:17;;;;;;;0.30;0.30;;;11.80;99.90;;;;;;4430286;32;20073;-61
2021/05/28 00:33:42;;;;;;;0.28;0.28;;;11.70;99.90;;;;;;4432071;32;20074;-62
2021/05/28 00:36:08;;;;;;;0.28;0.28;;;11.70;99.90;;;;;;4431622;32;20514;-61
2021/05/28 00:38:34;;;;;;;0.30;0.30;;;11.70;99.90;;;;;;4430608;32;20091;-62
2021/05/28 00:40:59;;;;;;;1.00;0.45;;;11.60;99.90;;;;;;4431928;32;20081;-62
2021/05/28 00:43:25;;;;;;;0.52;0.52;;;11.60;99.90;;;;;;4431767;32;20522;-63
2021/05/28 00:45:52;;;;;;;0.40;0.40;;;11.70;99.90;;;;;;4430210;32;20065;-61
2021/05/28 00:48:18;;;;;;;0.30;0.30;;;11.60;99.90;;;;;;4431736;32;20096;-62
2021/05/28 00:50:44;;;;;;;0.50;0.50;;;11.60;99.90;;;;;;4431965;32;20470;-61
2021/05/28 00:53:10;;;;;;;0.25;0.25;;;11.60;99.90;;;;;;4431102;32;20455;-62
2021/05/28 00:55:35;;;;;;;0.40;0.40;;;11.60;99.90;;;;;;4430738;32;20124;-62
2021/05/28 00:58:01;;;;;;;0.37;0.37;;;11.60;99.90;;;;;;4430071;32;20061;-62
2021/05/28 01:00:27;;;;;;;0.50;0.40;;;11.60;99.90;;;;;;4429625;32;20523;-61
2021/05/28 01:02:54;;;;;;;0.68;0.68;;;11.70;99.90;;;;;;4430271;32;20568;-61
2021/05/28 01:05:20;;;;;;;0.40;0.40;;;11.60;99.90;;;;;;4430368;32;20090;-62
2021/05/28 01:07:45;;;;;;;0.50;0.50;;;11.70;99.90;;;;;;4430173;32;20411;-62
2021/05/28 01:10:12;;;;;;;0.30;0.30;;;11.70;99.90;;;;;;4431608;32;20077;-61
2021/05/28 01:12:38;;;;;;;0.50;0.50;;;11.70;99.90;;;;;;4437038;32;20116;-62
2021/05/28 01:15:06;;;;;;;0.32;0.32;;;11.70;99.90;;;;;;4446554;32;20065;-62
2021/05/28 01:17:31;;;;;;;0.50;0.50;;;11.70;99.90;;;;;;4446847;32;20084;-62
2021/05/28 01:19:57;;;;;;;13.52;0.50;;;11.70;99.90;;;;;;4445756;32;20414;-62
2021/05/28 01:22:23;;;;;;;0.20;0.20;;;11.60;99.90;;;;;;4445536;32;20177;-61
2021/05/28 01:24:48;;;;;;;1.55;0.68;;;11.60;99.90;;;;;;4445611;32;20066;-62
2021/05/28 01:27:15;;;;;;;0.40;0.40;;;11.60;99.90;;;;;;4446233;32;20804;-62
2021/05/28 01:29:41;;;;;;;0.55;0.50;;;11.60;99.90;;;;;;4446648;32;20069;-63
2021/05/28 01:32:06;;;;;;;0.50;0.50;;;11.60;99.90;;;;;;4445828;32;20065;-62
2021/05/28 01:34:32;;;;;;;0.30;0.30;;;11.50;99.90;;;;;;4444683;32;20082;-62
2021/05/28 01:36:57;;;;;;;0.32;0.32;;;11.50;99.90;;;;;;4446607;32;20056;-62
2021/05/28 01:39:23;;;;;;;0.40;0.40;;;11.60;99.90;;;;;;4446048;32;20120;-61
2021/05/28 01:41:48;;;;;;;0.30;0.30;;;11.60;99.90;;;;;;4445250;32;20057;-61
2021/05/28 01:44:14;;;;;;;0.30;0.30;;;11.60;99.90;;;;;;4445133;32;20074;-61
2021/05/28 01:46:40;;;;;;;0.65;0.32;;;11.50;99.90;;;;;;4444832;32;20513;-62
2021/05/28 01:49:06;;;;;;;0.20;0.20;;;11.60;99.90;;;;;;4445370;32;20081;-61
2021/05/28 01:51:32;;;;;;;0.30;0.30;;;11.60;99.90;;;;;;4445327;32;20057;-61
2021/05/28 01:53:57;;;;;;;0.50;0.50;;;11.60;99.90;;;;;;4445207;32;20453;-62
2021/05/28 01:56:24;;;;;;;0.22;0.22;;;11.60;99.90;;;;;;4444917;32;20061;-62
2021/05/28 01:58:50;;;;;;;0.52;0.52;;;11.70;99.90;;;;;;4445034;32;20057;-61
2021/05/28 02:01:15;;;;;;;0.30;0.30;;;11.60;99.90;;;;;;4444794;32;20077;-62
2021/05/28 02:03:40;;;;;;;1.83;0.50;;;11.50;99.90;;;;;;4445009;32;20077;-62
2021/05/28 02:06:06;;;;;;;1.45;0.75;;;11.60;99.90;;;;;;4445580;32;20074;-62
2021/05/28 02:08:32;;;;;;;0.30;0.30;;;11.60;99.90;;;;;;4445017;32;20111;-62
2021/05/28 02:10:57;;;;;;;3.70;0.60;;;11.50;99.90;;;;;;4445204;32;20065;-62
2021/05/28 02:13:23;;;;;;;0.40;0.40;;;11.50;99.90;;;;;;4432859;32;20455;-62
2021/05/28 02:15:48;;;;;;;0.20;0.20;;;11.50;99.90;;;;;;4428782;32;20135;-62
2021/05/28 02:18:14;;;;;;;0.37;0.37;;;11.50;99.90;;;;;;4428919;32;20549;-62
2021/05/28 02:20:39;;;;;;;0.43;0.30;;;11.50;99.90;;;;;;4430412;32;20115;-62
2021/05/28 02:23:05;;;;;;;0.80;0.40;;;11.50;99.90;;;;;;4430389;32;20270;-61
2021/05/28 02:25:30;;;;;;;0.37;0.30;;;11.50;99.90;;;;;;4429781;32;20433;-62
2021/05/28 02:27:56;;;;;;;0.45;0.45;;;11.50;99.90;;;;;;4429577;32;20065;-59
2021/05/28 02:30:21;;;;;;;0.20;0.20;;;11.40;99.90;;;;;;4428152;32;20061;-61
2021/05/28 02:32:47;;;;;;;0.50;0.45;;;11.40;99.90;;;;;;4428947;32;20504;-61
2021/05/28 02:35:13;;;;;;;1.27;0.57;;;11.40;99.90;;;;;;4428398;32;20124;-62
2021/05/28 02:37:38;;;;;;;0.30;0.30;;;11.50;99.90;;;;;;4429642;32;20064;-62
2021/05/28 02:40:06;;;;;;;0.52;0.52;;;11.50;99.90;;;;;;4429327;32;20070;-62
2021/05/28 02:42:33;;;;;;;0.32;0.32;;;11.40;99.90;;;;;;4428882;32;20128;-62
2021/05/28 02:44:58;;;;;;;0.20;0.20;;;11.40;99.90;;;;;;4428871;32;20077;-61
2021/05/28 02:47:24;;;;;;;0.28;0.28;;;11.40;99.90;;;;;;4428953;32;20084;-61
2021/05/28 02:49:50;;;;;;;0.20;0.20;;;11.40;99.90;;;;;;4429298;32;20128;-62
2021/05/28 02:52:16;;;;;;;0.20;0.20;;;11.40;99.90;;;;;;4416401;32;20135;-61
2021/05/28 02:54:42;;;;;;;0.40;0.40;;;11.40;99.90;;;;;;4430431;32;20526;-62
2021/05/28 02:57:08;;;;;;;1.55;0.47;;;11.40;99.90;;;;;;4414884;32;20057;-61
2021/05/28 02:59:34;;;;;;;0.20;0.20;;;11.30;99.90;;;;;;4429306;32;20127;-61
2021/05/28 03:01:59;;;;;;;0.28;0.28;;;11.30;99.90;;;;;;4428863;32;20070;-62
2021/05/28 03:04:25;;;;;;;0.20;0.20;;;11.20;99.90;;;;;;4429222;32;20529;-61
2021/05/28 03:06:50;;;;;;;0.30;0.30;;;11.10;99.90;;;;;;4429139;32;20080;-62
2021/05/28 03:09:16;;;;;;;0.30;0.30;;;11.00;99.90;;;;;;4429897;32;20066;-61
2021/05/28 03:11:41;;;;;;;1.12;0.30;;;11.00;99.90;;;;;;4429546;32;20081;-62
2021/05/28 03:14:07;;;;;;;0.20;0.20;;;11.00;99.90;;;;;;4444107;32;20056;-62
2021/05/28 03:16:33;;;;;;;0.22;0.22;;;11.00;99.90;;;;;;4443174;32;20069;-62
2021/05/28 03:19:01;;;;;;;0.50;0.50;;;11.00;99.90;;;;;;4443947;32;20505;-62
2021/05/28 03:23:59;;;;;;;0.30;0.30;;;11.00;99.90;;;;;;4444684;32;20120;-61
2021/05/28 03:26:27;;;;;;;0.73;0.30;;;11.00;99.90;;;;;;4443844;32;20066;-62
2021/05/28 03:28:53;;;;;;;0.37;0.37;;;11.00;99.90;;;;;;4443873;32;20061;-61
2021/05/28 03:31:19;;;;;;;0.50;0.50;;;10.90;99.90;;;;;;4445000;32;20456;-62
2021/05/28 03:33:45;;;;;;;0.30;0.30;;;10.90;99.90;;;;;;4446274;32;20132;-62
2021/05/28 03:36:13;;;;;;;0.40;0.40;;;10.80;99.90;;;;;;4448303;32;20061;-60
2021/05/28 03:38:39;;;;;;;0.90;0.52;;;10.80;99.90;;;;;;4446285;32;20065;-63
2021/05/28 03:41:04;;;;;;;0.20;0.20;;;10.90;99.90;;;;;;4446597;32;20526;-61
2021/05/28 03:43:30;;;;;;;2.55;1.00;;;10.90;99.90;;;;;;4446996;32;20406;-61
2021/05/28 03:45:56;;;;;;;0.30;0.30;;;10.80;99.90;;;;;;4446035;32;20065;-62
2021/05/28 03:48:21;;;;;;;0.20;0.20;;;10.80;99.90;;;;;;4446950;32;20061;-62
2021/05/28 03:50:47;;;;;;;0.30;0.30;;;10.90;99.90;;;;;;4447503;32;20072;-61
2021/05/28 03:53:12;;;;;;;0.20;0.20;;;10.80;99.90;;;;;;4446312;32;20066;-58
2021/05/28 03:55:38;;;;;;;1.83;0.40;;;10.80;99.90;;;;;;4447328;32;20073;-62
2021/05/28 03:58:03;;;;;;;2.65;0.52;;;10.80;99.90;;;;;;4447187;32;20060;-62
2021/05/28 04:00:29;;;;;;;1.35;0.40;;;10.80;99.90;;;;;;4446580;32;20130;-62
2021/05/28 04:02:55;;;;;;;0.20;0.20;;;10.90;99.90;;;;;;4447706;32;20119;-61
2021/05/28 04:05:20;;;;;;;0.20;0.20;;;10.90;99.90;;;;;;4445889;32;20065;-61
2021/05/28 04:07:46;;;;;;;0.47;0.47;;;10.90;99.90;;;;;;4447276;32;20124;-62
2021/05/28 04:10:13;;;;;;;0.10;0.10;;;10.80;99.90;;;;;;4446226;32;20127;-61
2021/05/28 04:12:38;;;;;;;0.30;0.30;;;10.90;99.90;;;;;;4439110;32;20109;-62
2021/05/28 04:15:06;;;;;;;0.30;0.30;;;10.90;99.90;;;;;;4430447;32;20577;-62
2021/05/28 04:17:31;;;;;;;0.90;0.80;;;11.00;99.90;;;;;;4431204;32;20081;-61
2021/05/28 04:19:57;;;;;;;0.30;0.30;;;11.10;99.90;;;;;;4430764;32;20412;-62
2021/05/28 04:22:22;;;;;;;0.37;0.37;;;11.10;99.90;;;;;;4423603;32;20120;-62
2021/05/28 04:24:47;;;;;;;0.40;0.40;;;11.10;99.90;;;;;;4428141;32;20081;-62
2021/05/28 04:27:13;;;;;;;0.20;0.20;;;11.10;99.90;;;;;;4428724;32;20077;-61
2021/05/28 04:29:39;;;;;;;5.18;0.40;;;11.00;99.90;;;;;;4430367;32;20163;-62
2021/05/28 04:32:05;;;;;;;0.20;0.20;;;11.10;99.90;;;;;;4429095;32;20058;-62
2021/05/28 04:34:32;;;;;;;0.32;0.32;;;11.10;99.90;;;;;;4428989;32;20116;-62
2021/05/28 04:36:58;;;;;;;0.40;0.40;;;11.10;99.90;;;;;;4429862;32;20124;-62
2021/05/28 04:39:26;;;;;;;0.20;0.20;;;11.10;99.90;;;;;;4431582;32;20841;-62
2021/05/28 04:41:51;;;;;;;0.30;0.30;;;11.10;99.90;;;;;;4430298;32;20058;-61
2021/05/28 04:44:17;;;;;;;0.43;0.43;;;11.20;99.90;;;;;;4430617;32;20126;-62
2021/05/28 04:46:43;;;;;;;0.40;0.40;;;11.20;99.90;;;;;;4429022;32;20062;-62
2021/05/28 04:49:08;;;;;;;0.40;0.40;;;11.30;99.90;;;;;;4429279;32;20097;-60
2021/05/28 04:51:35;;;;;;;5.85;0.95;;;11.30;99.90;;;;;;4428945;32;20405;-62
2021/05/28 04:54:00;;;;;;;0.30;0.30;;;11.30;99.90;;;;;;4416531;32;20128;-62
2021/05/28 04:56:26;;;;;;;0.30;0.30;;;11.30;99.90;;;;;;4429703;32;20597;-62
2021/05/28 04:58:52;;;;;;;0.30;0.30;;;11.30;99.90;;;;;;4429276;32;20522;-60
2021/05/28 05:01:17;;;;;;;0.30;0.30;;;11.30;99.90;;;;;;4424290;32;20049;-62
2021/05/28 05:03:42;;;;;;;0.40;0.40;;;11.30;99.90;;;;;;4423345;32;20061;-62
2021/05/28 05:06:08;;;;;;;0.35;0.35;;;11.30;99.90;;;;;;4429236;32;20078;-62
2021/05/28 05:08:35;;;;;;;0.37;0.37;;;11.30;99.90;;;;;;4433437;32;20060;-62
2021/05/28 05:11:01;;;;;;;1.55;0.50;;;11.20;99.90;;;;;;4425929;32;20093;-61
2021/05/28 05:13:27;;;;;;;0.40;0.40;;;11.10;99.90;;;;;;4426566;32;20073;-61
2021/05/28 05:15:52;;;;;;;0.43;0.40;;;11.10;99.90;;;;;;4429126;32;20511;-61
2021/05/28 05:18:18;;;;;;;0.30;0.30;;;11.00;99.90;;;;;;4412609;32;20084;-61
2021/05/28 05:20:43;;;;;;;0.25;0.25;;;11.00;99.90;;;;;;4436115;32;20053;-62
2021/05/28 05:23:08;;;;;;;0.30;0.30;;;11.10;99.90;;;;;;4431223;32;20081;-61
2021/05/28 05:25:34;;;;;;;0.55;0.55;;;11.10;99.90;;;;;;4428387;32;20130;-61
2021/05/28 05:27:59;;;;;;;0.30;0.30;;;11.00;99.90;;;;;;4416474;32;20168;-61
2021/05/28 05:30:25;;;;;;;0.22;0.22;;;11.00;99.90;;;;;;4417274;32;20458;-61
2021/05/28 05:32:50;;;;;;;0.98;0.30;;;11.10;99.90;;;;;;4408825;32;20385;-61
2021/05/28 05:35:16;;;;;;;0.32;0.32;;;11.10;99.90;;;;;;4428033;32;20505;-60
2021/05/28 05:37:42;;;;;;;2.72;1.27;;;11.10;99.90;;;;;;4429248;32;20069;-60
2021/05/28 05:40:08;;;;;;;0.40;0.40;;;11.10;99.90;;;;;;4427737;32;20401;-61
2021/05/28 05:42:37;;;;;;;0.40;0.40;;;11.00;99.90;;;;;;4424888;32;20117;-61
2021/05/28 05:45:04;;;;;;;0.30;0.30;;;11.00;99.90;;;;;;4421202;32;20069;-61
2021/05/28 05:47:29;;;;;;;0.35;0.30;;;10.90;99.90;;;;;;4424182;32;20498;-61
2021/05/28 05:49:56;;;;;;;0.30;0.30;;;10.90;99.90;;;;;;4422030;32;20077;-62
2021/05/28 05:52:21;;;;;;;0.30;0.30;;;11.00;99.90;;;;;;4424320;32;20095;-61
2021/05/28 05:54:48;;;;;;;3.92;0.55;;;11.10;99.90;;;;;;4427120;32;20108;-61
2021/05/28 05:57:13;;;;;;;0.35;0.35;;;11.10;99.90;;;;;;4423708;32;20158;-61
2021/05/28 05:59:39;;;;;;;7.78;1.58;;;11.20;99.90;;;;;;4411611;32;20113;-62
2021/05/28 06:02:05;;;;;;;0.30;0.30;;;11.20;99.90;;;;;;4430642;32;20078;-61
2021/05/28 06:04:30;;;;;;;0.28;0.28;;;11.30;99.90;;;;;;4408174;32;20130;-60
2021/05/28 06:06:56;;;;;;;0.30;0.30;;;11.20;99.90;;;;;;4427899;32;20064;-60
2021/05/28 06:09:21;;;;;;;0.50;0.50;;;11.30;99.90;;;;;;4426890;32;20062;-60
2021/05/28 06:11:47;;;;;;;0.30;0.30;;;11.40;99.90;;;;;;4420099;32;20078;-61
2021/05/28 06:14:12;;;;;;;1.40;0.57;;;11.30;99.90;;;;;;4427435;32;20561;-61
2021/05/28 06:16:38;;;;;;;0.30;0.30;;;11.40;99.90;;;;;;4425912;32;20074;-61
2021/05/28 06:19:04;;;;;;;0.35;0.35;;;11.50;99.90;;;;;;4426953;32;20065;-61
2021/05/28 06:21:31;;;;;;;0.20;0.20;;;11.50;99.90;;;;;;4426483;32;20557;-61
2021/05/28 06:23:57;;;;;;;0.22;0.22;;;11.50;99.90;;;;;;4428137;32;20149;-59
2021/05/28 06:26:23;;;;;;;0.30;0.30;;;11.60;99.90;;;;;;4424879;32;20608;-61
2021/05/28 06:28:49;;;;;;;0.28;0.28;;;11.60;99.90;;;;;;4415432;32;20081;-59
2021/05/28 06:31:14;;;;;;;0.30;0.30;;;11.60;99.90;;;;;;4420486;32;20352;-63
2021/05/28 06:33:39;;;;;;;0.95;0.70;;;11.50;99.90;;;;;;4427116;32;20130;-60
2021/05/28 06:36:05;;;;;;;0.30;0.30;;;11.60;99.90;;;;;;4415949;32;20373;-61
2021/05/28 06:38:31;;;;;;;0.30;0.30;;;11.60;99.90;;;;;;4423255;32;20416;-61
2021/05/28 06:40:56;;;;;;;2.70;0.90;;;11.60;99.90;;;;;;4438327;32;20085;-62
2021/05/28 06:43:22;;;;;;;0.30;0.30;;;11.50;99.90;;;;;;4417320;32;20094;-61
2021/05/28 06:45:47;;;;;;;0.30;0.30;;;11.50;99.90;;;;;;4424422;32;20081;-60
2021/05/28 06:48:13;;;;;;;0.25;0.25;;;11.60;99.90;;;;;;4426837;32;20069;-60
2021/05/28 06:50:41;;;;;;;0.20;0.20;;;11.80;99.90;;;;;;4423193;32;20082;-61
2021/05/28 06:53:09;;;;;;;0.43;0.37;;;11.90;99.90;;;;;;4424472;32;20081;-60
2021/05/28 06:55:35;;;;;;;0.30;0.30;;;11.80;99.90;;;;;;4430946;32;20065;-59
2021/05/28 06:58:00;;;;;;;0.20;0.20;;;11.90;99.90;;;;;;4433509;32;20230;-61
2021/05/28 07:00:26;;;;;;;0.30;0.30;;;11.70;99.90;;;;;;4430130;32;20081;-61
2021/05/28 07:02:55;;;;;;;0.60;0.20;;;11.80;99.90;;;;;;4430474;32;20428;-61
2021/05/28 07:05:23;;;;;;;0.40;0.40;;;11.80;99.90;;;;;;4427764;32;20544;-61
2021/05/28 07:07:48;;;;;;;2.25;0.40;;;11.80;99.90;;;;;;4414473;32;20061;-61
2021/05/28 07:10:14;;;;;;;0.40;0.40;;;11.70;99.90;;;;;;4428426;32;20090;-62
2021/05/28 07:12:40;;;;;;;0.22;0.22;;;11.80;99.90;;;;;;4430393;32;20509;-62
2021/05/28 07:15:07;;;;;;;0.40;0.40;;;11.80;99.90;;;;;;4426802;32;20069;-62
2021/05/28 07:17:33;;;;;;;0.30;0.30;;;11.90;99.90;;;;;;4427801;32;20053;-62
2021/05/28 07:20:00;;;;;;;0.20;0.20;;;11.90;99.90;;;;;;4427087;32;20383;-62
2021/05/28 07:22:25;;;;;;;0.30;0.30;;;12.00;99.90;;;;;;4425723;32;20106;-62
2021/05/28 07:24:51;;;;;;;0.20;0.20;;;12.00;99.90;;;;;;4418602;32;20069;-61
2021/05/28 07:27:16;;;;;;;0.20;0.20;;;12.00;99.90;;;;;;4420973;32;20089;-62
2021/05/28 07:29:42;;;;;;;0.30;0.30;;;12.00;99.90;;;;;;4425536;32;20081;-60
2021/05/28 07:32:08;;;;;;;0.30;0.30;;;12.10;99.90;;;;;;4421205;32;20070;-60
2021/05/28 07:34:34;;;;;;;0.50;0.50;;;12.30;99.90;;;;;;4410578;32;20207;-60
2021/05/28 07:37:00;;;;;;;0.30;0.30;;;12.30;99.90;;;;;;4431999;32;20518;-62
2021/05/28 07:39:25;;;;;;;0.32;0.32;;;12.40;99.90;;;;;;4412432;32;20090;-60
2021/05/28 07:41:51;;;;;;;0.20;0.20;;;12.50;99.90;;;;;;4418052;32;20131;-62
2021/05/28 07:44:16;;;;;;;0.30;0.30;;;12.50;99.90;;;;;;4421726;32;20196;-63
2021/05/28 07:46:44;;;;;;;0.30;0.30;;;12.50;99.90;;;;;;4422574;32;20092;-63
2021/05/28 07:49:13;;;;;;;0.30;0.30;;;12.50;99.90;;;;;;4417276;32;20061;-59
2021/05/28 07:51:39;;;;;;;0.40;0.40;;;12.60;99.90;;;;;;4417822;32;20189;-60
2021/05/28 07:54:06;;;;;;;0.50;0.50;;;12.60;99.90;;;;;;4419288;32;20136;-60
2021/05/28 07:56:33;;;;;;;0.37;0.37;;;12.50;99.90;;;;;;4423423;32;20088;-60
2021/05/28 07:58:59;;;;;;;0.40;0.40;;;12.60;99.90;;;;;;4423692;32;20070;-61
2021/05/28 08:01:26;;;;;;;0.20;0.20;;;12.70;99.90;;;;;;4421685;32;20078;-61
2021/05/28 08:03:51;;;;;;;0.40;0.40;;;12.60;99.90;;;;;;4425554;32;20424;-61
2021/05/28 08:06:17;;;;;;;0.82;0.45;;;12.70;99.90;;;;;;4426227;32;20082;-61
2021/05/28 08:08:42;;;;;;;0.30;0.30;;;12.70;99.90;;;;;;4420186;32;20069;-61
2021/05/28 08:11:08;;;;;;;0.30;0.30;;;12.70;99.90;;;;;;4423670;32;20064;-61
2021/05/28 08:13:34;;;;;;;3.10;1.60;;;12.80;99.90;;;;;;4425341;32;20057;-61
2021/05/28 08:16:00;;;;;;;0.30;0.30;;;13.00;99.90;;;;;;4426200;32;20078;-62
2021/05/28 08:18:27;;;;;;;0.40;0.40;;;13.00;99.90;;;;;;4424438;32;20135;-62
2021/05/28 08:20:53;;;;;;;10.82;1.92;;;13.10;99.90;;;;;;4409351;32;20148;-62
2021/05/28 08:23:18;;;;;;;0.43;0.43;;;13.30;99.90;;;;;;4414885;32;20061;-62
2021/05/28 08:25:44;;;;;;;0.50;0.50;;;13.40;99.90;;;;;;4426003;32;20057;-62
2021/05/28 08:28:09;;;;;;;0.40;0.40;;;13.50;99.90;;;;;;4427831;32;20066;-61
2021/05/28 08:30:35;;;;;;;0.30;0.30;;;13.60;99.90;;;;;;4430567;32;20069;-61
2021/05/28 08:33:01;;;;;;;1.85;0.43;;;13.70;99.90;;;;;;4428243;32;20140;-60
2021/05/28 08:35:26;;;;;;;0.30;0.30;;;13.70;99.90;;;;;;4419815;32;20605;-62
2021/05/28 08:37:52;;;;;;;14.60;0.60;;;13.90;99.90;;;;;;4405951;32;20073;-61
2021/05/28 08:40:19;;;;;;;0.40;0.40;;;13.80;99.90;;;;;;4426170;32;20494;-60
2021/05/28 08:42:45;;;;;;;0.30;0.30;;;13.80;99.90;;;;;;4417927;32;20089;-60
2021/05/28 08:45:11;;;;;;;0.20;0.20;;;13.80;99.90;;;;;;4406224;32;20403;-62
2021/05/28 08:47:40;;;;;;;0.50;0.50;;;13.90;99.90;;;;;;4420582;32;20086;-60
2021/05/28 08:50:06;;;;;;;0.37;0.37;;;14.00;99.90;;;;;;4420099;32;20060;-61
2021/05/28 08:52:32;;;;;;;0.30;0.30;;;14.10;99.90;;;;;;4423785;32;20076;-61
2021/05/28 08:54:57;;;;;;;0.60;0.60;;;14.10;99.90;;;;;;4423610;32;20113;-61
2021/05/28 08:57:24;;;;;;;0.57;0.57;;;14.10;99.90;;;;;;4423811;32;20158;-60
2021/05/28 08:59:51;;;;;;;0.25;0.25;;;14.10;99.90;;;;;;4420841;32;20062;-61
2021/05/28 09:02:35;;;;;;;0.52;0.50;;;14.00;99.90;;;;;;4425376;32;20073;-61
2021/05/28 09:05:21;;;;;;;0.30;0.30;;;14.00;99.90;;;;;;4420606;32;20069;-61
2021/05/28 09:08:02;;;;;;;0.73;0.47;;;14.20;99.90;;;;;;4412547;32;20085;-61
2021/05/28 09:10:31;;;;;;;0.30;0.30;;;14.20;99.90;;;;;;4418903;32;20065;-58
2021/05/28 09:13:07;;;;;;;0.30;0.30;;;14.20;99.90;;;;;;4421321;32;20656;-60
2021/05/28 09:15:32;;;;;;;0.43;0.43;;;14.20;99.90;;;;;;4420764;32;20069;-61
2021/05/28 09:17:58;;;;;;;0.40;0.40;;;14.30;99.90;;;;;;4413294;32;20073;-61
2021/05/28 09:20:24;;;;;;;0.30;0.30;;;14.30;99.90;;;;;;4419729;32;20056;-61
2021/05/28 09:23:08;;;;;;;0.22;0.22;;;14.30;99.90;;;;;;4422794;32;20542;-60
2021/05/28 09:25:51;;;;;;;0.30;0.30;;;14.30;99.90;;;;;;4424084;32;20400;-60
2021/05/28 09:28:18;;;;;;;0.30;0.30;;;14.10;99.90;;;;;;4421001;32;20069;-60
2021/05/28 09:30:52;;;;;;;0.35;0.35;;;14.00;99.90;;;;;;4423008;32;20491;-61
2021/05/28 09:33:19;;;;;;;0.55;0.25;;;13.90;99.90;;;;;;4407600;32;20105;-60
2021/05/28 09:35:44;;;;;;;0.30;0.30;;;13.70;99.90;;;;;;4411131;32;20429;-61
2021/05/28 09:38:18;;;;;;;0.30;0.30;;;13.40;99.90;;;;;;4424151;32;20249;-61
2021/05/28 09:40:44;;;;;;;0.30;0.30;;;13.40;99.90;;;;;;4424445;32;73193;-61
2021/05/28 09:43:13;;;;;;;0.30;0.30;;;13.30;99.90;;;;;;4426000;32;20143;-61
2021/05/28 09:45:39;;;;;;;0.30;0.30;;;13.30;99.90;;;;;;4423049;32;20061;-60
2021/05/28 09:48:24;;;;;;;0.30;0.30;;;13.30;99.90;;;;;;4425411;32;20154;-61
2021/05/28 09:50:54;;;;;;;0.30;0.30;;;13.40;99.90;;;;;;4412352;32;20073;-61
2021/05/28 09:53:41;;;;;;;0.30;0.30;;;13.50;99.90;;;;;;4423397;32;20093;-62
2021/05/28 09:56:28;;;;;;;1.17;0.75;;;13.70;99.90;;;;;;4415504;32;20062;-62
2021/05/28 09:58:56;;;;;;;1.00;0.88;;;14.10;99.90;;;;;;4403641;32;20484;-61
2021/05/28 10:01:22;;;;;;;3.37;0.80;;;14.30;99.90;;;;;;4425714;32;20085;-59
2021/05/28 10:04:08;;;;;;;0.32;0.32;;;14.30;99.90;;;;;;4424793;32;20369;-62
2021/05/28 10:06:35;;;;;;;0.30;0.30;;;14.40;99.90;;;;;;4410838;32;20102;-61
2021/05/28 10:09:05;;;;;;;0.25;0.25;;;14.60;99.90;;;;;;4428223;32;21104;-61
2021/05/28 10:11:32;;;;;;;0.63;0.63;;;14.80;99.90;;;;;;4410017;32;20554;-61
2021/05/28 10:13:58;;;;;;;0.20;0.20;;;14.90;99.90;;;;;;4414153;32;20074;-62
2021/05/28 10:16:24;;;;;;;0.30;0.30;;;15.10;99.90;;;;;;4424087;32;20074;-62
2021/05/28 10:18:52;;;;;;;0.55;0.50;;;15.20;99.90;;;;;;4396906;32;20144;-62
2021/05/28 10:21:18;;;;;;;0.28;0.28;;;15.20;99.90;;;;;;4425650;32;20129;-62
2021/05/28 10:23:45;;;;;;;0.20;0.20;;;15.40;99.90;;;;;;4417727;32;20172;-60
2021/05/28 10:26:11;;;;;;;0.40;0.40;;;15.50;99.90;;;;;;4411015;32;20419;-62
2021/05/28 10:28:41;;;;;;;0.37;0.37;;;15.70;99.90;;;;;;4403607;32;20076;-62
2021/05/28 10:31:07;;;;;;;0.40;0.40;;;15.50;99.90;;;;;;4418420;32;20057;-62
2021/05/28 10:33:33;;;;;;;0.30;0.30;;;15.40;99.90;;;;;;4423643;32;20107;-61
2021/05/28 10:36:01;;;;;;;0.30;0.30;;;15.30;99.90;;;;;;4424772;32;20514;-62
2021/05/28 10:38:32;;;;;;;0.30;0.30;;;15.10;99.90;;;;;;4410407;32;20507;-63
2021/05/28 10:41:07;;;;;;;0.20;0.20;;;15.00;99.90;;;;;;4424085;32;20086;-63
2021/05/28 10:43:35;;;;;;;0.28;0.28;;;14.80;99.90;;;;;;4420940;32;20094;-61
2021/05/28 10:46:09;;;;;;;0.30;0.30;;;14.70;99.90;;;;;;4423270;32;20057;-60
2021/05/28 10:48:40;;;;;;;0.30;0.30;;;14.70;99.90;;;;;;4429886;32;20198;-61
2021/05/28 10:51:09;;;;;;;0.30;0.30;;;14.80;99.90;;;;;;4422637;32;20519;-62
2021/05/28 10:53:35;;;;;;;0.25;0.25;;;14.80;99.90;;;;;;4407498;32;20065;-62
2021/05/28 10:56:09;;;;;;;0.30;0.30;;;14.90;99.90;;;;;;4409871;32;20081;-62
2021/05/28 10:58:56;;;;;;;2.00;1.25;;;15.00;99.90;;;;;;4419991;32;20092;-61
2021/05/28 11:01:43;;;;;;;0.30;0.30;;;15.00;99.90;;;;;;4411056;32;20401;-61
2021/05/28 11:04:12;;;;;;;0.30;0.30;;;15.00;99.90;;;;;;4409037;32;20066;-62
2021/05/28 11:06:59;;;;;;;0.37;0.37;;;14.90;99.90;;;;;;4416373;32;20438;-62
2021/05/28 11:09:47;;;;;;;0.35;0.35;;;14.80;99.90;;;;;;4413951;32;20093;-61
2021/05/28 11:12:16;;;;;;;0.30;0.30;;;14.90;99.90;;;;;;4412168;32;20079;-62
2021/05/28 11:15:04;;;;;;;0.20;0.20;;;14.90;99.90;;;;;;4410212;32;20098;-62
2021/05/28 11:17:30;;;;;;;0.20;0.20;;;14.90;99.90;;;;;;4419480;32;20534;-62
2021/05/28 11:20:03;;;;;;;0.30;0.30;;;14.90;99.90;;;;;;4427303;32;20162;-61
2021/05/28 11:22:33;;;;;;;0.30;0.30;;;14.70;99.90;;;;;;4423794;32;20467;-62
2021/05/28 11:25:03;;;;;;;0.30;0.30;;;14.60;99.90;;;;;;4425240;32;20482;-62
2021/05/28 11:27:34;;;;;;;0.40;0.32;;;14.60;99.90;;;;;;4425086;32;20157;-63
2021/05/28 11:30:05;;;;;;;0.30;0.30;;;14.60;99.90;;;;;;4425975;32;20101;-63
2021/05/28 11:32:46;;;;;;;0.65;0.65;;;14.80;99.90;;;;;;4423029;32;20105;-63
2021/05/28 11:35:41;;;;;;;0.40;0.40;;;15.00;99.90;;;;;;4409746;32;20085;-62
2021/05/28 11:38:08;;;;;;;0.28;0.28;;;15.10;99.90;;;;;;4412988;32;20481;-63
2021/05/28 11:40:37;;;;;;;0.20;0.20;;;15.30;99.90;;;;;;4410581;32;20633;-63
2021/05/28 11:43:12;;;;;;;0.45;0.40;;;15.30;99.90;;;;;;4421178;32;20144;-63
2021/05/28 11:45:41;;;;;;;0.30;0.30;;;15.50;99.90;;;;;;4408605;32;20515;-63
2021/05/28 11:48:16;;;;;;;0.28;0.28;;;15.60;99.90;;;;;;4408885;32;20061;-63
2021/05/28 11:50:47;;;;;;;0.30;0.30;;;15.70;99.90;;;;;;4424265;32;20065;-63
2021/05/28 11:53:13;;;;;;;0.32;0.32;;;16.10;99.90;;;;;;4411033;32;20060;-63
2021/05/28 11:55:45;;;;;;;0.20;0.20;;;16.40;99.90;;;;;;4412538;32;20138;-64
2021/05/28 11:58:12;;;;;;;0.20;0.20;;;17.00;99.90;;;;;;4414017;32;20084;-63
2021/05/28 12:00:37;;;;;;;0.30;0.30;;;17.50;99.90;;;;;;4409269;32;20065;-63
2021/05/28 12:03:03;;;;;;;0.30;0.30;;;17.90;99.90;;;;;;4413715;32;20541;-64
2021/05/28 12:05:35;;;;;;;0.25;0.25;;;18.00;99.90;;;;;;4422237;32;20078;-64
2021/05/28 12:08:15;;;;;;;0.20;0.20;;;18.40;99.90;;;;;;4410300;32;20117;-62
2021/05/28 12:10:44;;;;;;;0.20;0.20;;;18.50;99.90;;;;;;4427092;32;20098;-63
2021/05/28 12:13:14;;;;;;;0.22;0.20;;;18.70;99.90;;;;;;4428315;32;20125;-62
2021/05/28 12:15:43;;;;;;;0.20;0.20;;;19.20;99.90;;;;;;4414463;32;20077;-62
2021/05/28 12:18:15;;;;;;;0.30;0.30;;;19.40;99.90;;;;;;4415154;32;20073;-63
2021/05/28 12:20:42;;;;;;;0.10;0.10;;;19.70;99.90;;;;;;4413145;32;21442;-63
2021/05/28 12:23:13;;;;;;;0.30;0.30;;;20.20;99.90;;;;;;4398409;32;20082;-63
2021/05/28 12:25:43;;;;;;;0.10;0.10;;;20.70;99.90;;;;;;4425974;32;20157;-64
2021/05/28 12:28:14;;;;;;;0.10;0.10;;;20.80;99.90;;;;;;4397908;32;20073;-64
2021/05/28 12:30:41;;;;;;;1.27;0.50;;;20.00;99.90;;;;;;4406898;32;20518;-64
2021/05/28 12:33:08;;;;;;;0.30;0.30;;;19.00;99.90;;;;;;4422403;32;20644;-62
2021/05/28 12:35:34;;;;;;;0.25;0.25;;;18.00;99.90;;;;;;4412868;32;20089;-62
2021/05/28 12:38:04;;;;;;;0.30;0.30;;;17.10;99.90;;;;;;4411886;32;20144;-63
2021/05/28 12:40:30;;;;;;;0.20;0.20;;;16.60;99.90;;;;;;4413587;32;20066;-63
2021/05/28 12:42:58;;;;;;;0.20;0.20;;;16.30;99.90;;;;;;4399142;32;20070;-62
2021/05/28 12:45:34;;;;;;;0.25;0.25;;;16.10;99.90;;;;;;4424098;32;20081;-62
2021/05/28 12:48:00;;;;;;;0.30;0.30;;;16.30;99.90;;;;;;4422896;32;20065;-62
2021/05/28 12:50:36;;;;;;;0.40;0.35;;;17.40;99.90;;;;;;4426828;32;20114;-62